sensor_id;sensor_type;location;lat;lon;timestamp;P1;durP1;ratioP1;P2;durP2;ratioP2
79644;SDS011;69117;47.148;18.954;2024-03-08T00:02:01;5.32;;;3.42;;
79644;SDS011;69117;47.148;18.954;2024-03-08T00:05:04;9.10;;;5.47;;
79644;SDS011;69117;47.148;18.954;2024-03-08T00:08:06;5.40;;;3.95;;
79644;SDS011;69117;47.148;18.954;2024-03-08T00:11:11;9.48;;;5.40;;
79644;SDS011;69117;47.148;18.954;2024-03-08T00:14:13;10.38;;;4.63;;
79644;SDS011;69117;47.148;18.954;2024-03-08T00:17:15;9.88;;;4.43;;
79644;SDS011;69117;47.148;18.954;2024-03-08T00:20:17;14.70;;;5.88;;
79644;SDS011;69117;47.148;18.954;2024-03-08T00:23:21;7.43;;;4.07;;
79644;SDS011;69117;47.148;18.954;2024-03-08T00:26:23;10.43;;;4.78;;
79644;SDS011;69117;47.148;18.954;2024-03-08T00:29:25;8.32;;;3.55;;
79644;SDS011;69117;47.148;18.954;2024-03-08T00:32:27;9.63;;;6.18;;
79644;SDS011;69117;47.148;18.954;2024-03-08T00:35:28;11.52;;;5.07;;
79644;SDS011;69117;47.148;18.954;2024-03-08T00:38:31;10.98;;;4.93;;
79644;SDS011;69117;47.148;18.954;2024-03-08T00:41:33;11.05;;;5.93;;
79644;SDS011;69117;47.148;18.954;2024-03-08T00:44:35;12.95;;;5.43;;
79644;SDS011;69117;47.148;18.954;2024-03-08T00:47:37;9.05;;;5.30;;
79644;SDS011;69117;47.148;18.954;2024-03-08T00:50:39;10.93;;;5.88;;
79644;SDS011;69117;47.148;18.954;2024-03-08T00:53:41;10.93;;;5.38;;
79644;SDS011;69117;47.148;18.954;2024-03-08T00:56:44;17.45;;;7.28;;
79644;SDS011;69117;47.148;18.954;2024-03-08T00:59:47;15.52;;;6.75;;
79644;SDS011;69117;47.148;18.954;2024-03-08T01:02:49;11.82;;;5.25;;
79644;SDS011;69117;47.148;18.954;2024-03-08T01:05:51;11.57;;;5.78;;
79644;SDS011;69117;47.148;18.954;2024-03-08T01:08:53;7.97;;;3.67;;
79644;SDS011;69117;47.148;18.954;2024-03-08T01:11:55;17.55;;;7.05;;
79644;SDS011;69117;47.148;18.954;2024-03-08T01:14:57;11.20;;;6.13;;
79644;SDS011;69117;47.148;18.954;2024-03-08T01:17:59;11.23;;;5.05;;
79644;SDS011;69117;47.148;18.954;2024-03-08T01:21:02;12.40;;;5.90;;
79644;SDS011;69117;47.148;18.954;2024-03-08T01:24:04;10.07;;;5.68;;
79644;SDS011;69117;47.148;18.954;2024-03-08T01:27:06;10.05;;;5.43;;
79644;SDS011;69117;47.148;18.954;2024-03-08T01:30:10;11.52;;;5.03;;
79644;SDS011;69117;47.148;18.954;2024-03-08T01:33:12;13.52;;;6.15;;
79644;SDS011;69117;47.148;18.954;2024-03-08T01:36:14;11.50;;;5.82;;
79644;SDS011;69117;47.148;18.954;2024-03-08T01:39:17;16.25;;;7.78;;
79644;SDS011;69117;47.148;18.954;2024-03-08T01:42:18;12.20;;;5.50;;
79644;SDS011;69117;47.148;18.954;2024-03-08T01:45:20;8.10;;;5.00;;
79644;SDS011;69117;47.148;18.954;2024-03-08T01:48:22;11.90;;;5.10;;
79644;SDS011;69117;47.148;18.954;2024-03-08T01:51:25;9.38;;;4.75;;
79644;SDS011;69117;47.148;18.954;2024-03-08T01:54:27;9.27;;;4.68;;
79644;SDS011;69117;47.148;18.954;2024-03-08T01:57:30;14.85;;;6.72;;
79644;SDS011;69117;47.148;18.954;2024-03-08T02:00:34;9.18;;;5.10;;
79644;SDS011;69117;47.148;18.954;2024-03-08T02:03:37;7.68;;;4.32;;
79644;SDS011;69117;47.148;18.954;2024-03-08T02:06:39;15.25;;;6.43;;
79644;SDS011;69117;47.148;18.954;2024-03-08T02:09:41;16.23;;;7.05;;
79644;SDS011;69117;47.148;18.954;2024-03-08T02:12:43;15.30;;;8.35;;
79644;SDS011;69117;47.148;18.954;2024-03-08T02:15:52;14.85;;;6.35;;
79644;SDS011;69117;47.148;18.954;2024-03-08T02:18:57;12.45;;;6.28;;
79644;SDS011;69117;47.148;18.954;2024-03-08T02:21:59;17.27;;;7.32;;
79644;SDS011;69117;47.148;18.954;2024-03-08T02:25:02;17.45;;;7.18;;
79644;SDS011;69117;47.148;18.954;2024-03-08T02:28:04;15.02;;;7.68;;
79644;SDS011;69117;47.148;18.954;2024-03-08T02:31:06;15.20;;;7.93;;
79644;SDS011;69117;47.148;18.954;2024-03-08T02:34:09;22.40;;;9.60;;
79644;SDS011;69117;47.148;18.954;2024-03-08T02:37:11;28.33;;;10.85;;
79644;SDS011;69117;47.148;18.954;2024-03-08T02:40:13;21.75;;;10.43;;
79644;SDS011;69117;47.148;18.954;2024-03-08T02:43:15;22.02;;;8.63;;
79644;SDS011;69117;47.148;18.954;2024-03-08T02:46:19;21.77;;;9.45;;
79644;SDS011;69117;47.148;18.954;2024-03-08T02:49:22;17.65;;;10.30;;
79644;SDS011;69117;47.148;18.954;2024-03-08T02:52:23;27.58;;;11.43;;
79644;SDS011;69117;47.148;18.954;2024-03-08T02:55:25;23.75;;;9.10;;
79644;SDS011;69117;47.148;18.954;2024-03-08T02:58:27;26.52;;;8.57;;
79644;SDS011;69117;47.148;18.954;2024-03-08T03:01:29;24.42;;;9.88;;
79644;SDS011;69117;47.148;18.954;2024-03-08T03:04:31;20.73;;;8.60;;
79644;SDS011;69117;47.148;18.954;2024-03-08T03:07:32;23.23;;;9.13;;
79644;SDS011;69117;47.148;18.954;2024-03-08T03:10:35;17.95;;;8.55;;
79644;SDS011;69117;47.148;18.954;2024-03-08T03:13:37;13.23;;;7.07;;
79644;SDS011;69117;47.148;18.954;2024-03-08T03:16:39;22.52;;;8.60;;
79644;SDS011;69117;47.148;18.954;2024-03-08T03:19:41;18.05;;;8.90;;
79644;SDS011;69117;47.148;18.954;2024-03-08T03:22:44;19.83;;;9.25;;
79644;SDS011;69117;47.148;18.954;2024-03-08T03:25:48;14.85;;;8.30;;
79644;SDS011;69117;47.148;18.954;2024-03-08T03:28:49;19.33;;;9.02;;
79644;SDS011;69117;47.148;18.954;2024-03-08T03:31:51;19.08;;;8.20;;
79644;SDS011;69117;47.148;18.954;2024-03-08T03:34:53;19.67;;;9.52;;
79644;SDS011;69117;47.148;18.954;2024-03-08T03:37:55;20.63;;;10.18;;
79644;SDS011;69117;47.148;18.954;2024-03-08T03:41:12;20.55;;;8.27;;
79644;SDS011;69117;47.148;18.954;2024-03-08T03:44:15;25.73;;;9.68;;
79644;SDS011;69117;47.148;18.954;2024-03-08T03:47:17;21.98;;;8.02;;
79644;SDS011;69117;47.148;18.954;2024-03-08T03:50:19;20.98;;;9.23;;
79644;SDS011;69117;47.148;18.954;2024-03-08T03:53:21;18.83;;;8.77;;
79644;SDS011;69117;47.148;18.954;2024-03-08T03:56:26;20.85;;;9.82;;
79644;SDS011;69117;47.148;18.954;2024-03-08T03:59:28;23.55;;;10.90;;
79644;SDS011;69117;47.148;18.954;2024-03-08T04:02:30;19.55;;;9.63;;
79644;SDS011;69117;47.148;18.954;2024-03-08T04:05:32;20.77;;;9.23;;
79644;SDS011;69117;47.148;18.954;2024-03-08T04:08:34;19.58;;;9.25;;
79644;SDS011;69117;47.148;18.954;2024-03-08T04:11:35;15.88;;;8.88;;
79644;SDS011;69117;47.148;18.954;2024-03-08T04:14:38;18.10;;;7.68;;
79644;SDS011;69117;47.148;18.954;2024-03-08T04:17:44;22.15;;;9.43;;
79644;SDS011;69117;47.148;18.954;2024-03-08T04:20:48;19.38;;;7.95;;
79644;SDS011;69117;47.148;18.954;2024-03-08T04:23:49;15.43;;;8.75;;
79644;SDS011;69117;47.148;18.954;2024-03-08T04:26:51;18.25;;;9.63;;
79644;SDS011;69117;47.148;18.954;2024-03-08T04:29:53;20.33;;;9.38;;
79644;SDS011;69117;47.148;18.954;2024-03-08T04:32:55;19.40;;;9.30;;
79644;SDS011;69117;47.148;18.954;2024-03-08T04:35:56;18.38;;;8.90;;
79644;SDS011;69117;47.148;18.954;2024-03-08T04:38:59;17.83;;;8.68;;
79644;SDS011;69117;47.148;18.954;2024-03-08T04:42:02;20.20;;;11.32;;
79644;SDS011;69117;47.148;18.954;2024-03-08T04:45:07;17.90;;;9.18;;
79644;SDS011;69117;47.148;18.954;2024-03-08T04:48:10;22.48;;;9.98;;
79644;SDS011;69117;47.148;18.954;2024-03-08T04:51:13;18.98;;;10.27;;
79644;SDS011;69117;47.148;18.954;2024-03-08T04:54:14;19.38;;;9.27;;
79644;SDS011;69117;47.148;18.954;2024-03-08T04:57:16;18.60;;;11.02;;
79644;SDS011;69117;47.148;18.954;2024-03-08T05:00:20;16.58;;;8.10;;
79644;SDS011;69117;47.148;18.954;2024-03-08T05:03:22;15.45;;;8.00;;
79644;SDS011;69117;47.148;18.954;2024-03-08T05:06:28;21.45;;;9.90;;
79644;SDS011;69117;47.148;18.954;2024-03-08T05:09:31;19.73;;;7.82;;
79644;SDS011;69117;47.148;18.954;2024-03-08T05:12:33;22.30;;;9.02;;
79644;SDS011;69117;47.148;18.954;2024-03-08T05:15:35;18.92;;;8.02;;
79644;SDS011;69117;47.148;18.954;2024-03-08T05:18:37;18.75;;;8.52;;
79644;SDS011;69117;47.148;18.954;2024-03-08T05:21:39;18.17;;;9.32;;
79644;SDS011;69117;47.148;18.954;2024-03-08T05:24:41;19.35;;;7.80;;
79644;SDS011;69117;47.148;18.954;2024-03-08T05:27:43;18.00;;;8.05;;
79644;SDS011;69117;47.148;18.954;2024-03-08T05:30:45;22.33;;;10.48;;
79644;SDS011;69117;47.148;18.954;2024-03-08T05:33:47;16.95;;;7.88;;
79644;SDS011;69117;47.148;18.954;2024-03-08T05:36:49;17.00;;;9.23;;
79644;SDS011;69117;47.148;18.954;2024-03-08T05:39:52;20.10;;;10.27;;
79644;SDS011;69117;47.148;18.954;2024-03-08T05:42:55;23.92;;;9.88;;
79644;SDS011;69117;47.148;18.954;2024-03-08T05:45:56;21.20;;;8.50;;
79644;SDS011;69117;47.148;18.954;2024-03-08T05:48:58;21.80;;;8.23;;
79644;SDS011;69117;47.148;18.954;2024-03-08T05:52:00;27.33;;;10.52;;
79644;SDS011;69117;47.148;18.954;2024-03-08T05:55:02;16.70;;;9.23;;
79644;SDS011;69117;47.148;18.954;2024-03-08T05:58:04;16.60;;;8.95;;
79644;SDS011;69117;47.148;18.954;2024-03-08T06:01:06;21.88;;;9.55;;
79644;SDS011;69117;47.148;18.954;2024-03-08T06:04:09;21.33;;;8.02;;
79644;SDS011;69117;47.148;18.954;2024-03-08T06:07:13;17.85;;;8.60;;
79644;SDS011;69117;47.148;18.954;2024-03-08T06:10:15;26.02;;;11.32;;
79644;SDS011;69117;47.148;18.954;2024-03-08T06:13:18;21.02;;;8.13;;
79644;SDS011;69117;47.148;18.954;2024-03-08T06:16:20;17.13;;;7.95;;
79644;SDS011;69117;47.148;18.954;2024-03-08T06:19:22;17.10;;;8.32;;
79644;SDS011;69117;47.148;18.954;2024-03-08T06:22:24;14.52;;;8.07;;
79644;SDS011;69117;47.148;18.954;2024-03-08T06:25:25;26.20;;;12.55;;
79644;SDS011;69117;47.148;18.954;2024-03-08T06:28:27;14.25;;;7.82;;
79644;SDS011;69117;47.148;18.954;2024-03-08T06:31:29;20.77;;;8.65;;
79644;SDS011;69117;47.148;18.954;2024-03-08T06:34:32;17.30;;;8.65;;
79644;SDS011;69117;47.148;18.954;2024-03-08T06:37:35;19.52;;;9.82;;
79644;SDS011;69117;47.148;18.954;2024-03-08T06:40:37;25.10;;;9.23;;
79644;SDS011;69117;47.148;18.954;2024-03-08T06:43:39;18.40;;;8.43;;
79644;SDS011;69117;47.148;18.954;2024-03-08T06:46:41;22.67;;;10.05;;
79644;SDS011;69117;47.148;18.954;2024-03-08T06:49:42;19.00;;;9.90;;
79644;SDS011;69117;47.148;18.954;2024-03-08T06:52:47;21.10;;;9.57;;
79644;SDS011;69117;47.148;18.954;2024-03-08T06:58:56;14.48;;;6.75;;
79644;SDS011;69117;47.148;18.954;2024-03-08T07:01:58;16.00;;;9.18;;
79644;SDS011;69117;47.148;18.954;2024-03-08T07:05:01;18.35;;;7.72;;
79644;SDS011;69117;47.148;18.954;2024-03-08T07:08:03;20.85;;;9.27;;
79644;SDS011;69117;47.148;18.954;2024-03-08T07:11:05;19.00;;;9.43;;
79644;SDS011;69117;47.148;18.954;2024-03-08T07:14:06;20.63;;;9.00;;
79644;SDS011;69117;47.148;18.954;2024-03-08T07:17:08;20.42;;;9.80;;
79644;SDS011;69117;47.148;18.954;2024-03-08T07:20:10;19.95;;;10.38;;
79644;SDS011;69117;47.148;18.954;2024-03-08T07:23:14;17.02;;;7.65;;
79644;SDS011;69117;47.148;18.954;2024-03-08T07:26:36;21.27;;;8.45;;
79644;SDS011;69117;47.148;18.954;2024-03-08T07:29:39;17.40;;;8.27;;
79644;SDS011;69117;47.148;18.954;2024-03-08T07:32:41;26.15;;;8.95;;
79644;SDS011;69117;47.148;18.954;2024-03-08T07:35:45;18.98;;;8.65;;
79644;SDS011;69117;47.148;18.954;2024-03-08T07:38:48;17.20;;;8.88;;
79644;SDS011;69117;47.148;18.954;2024-03-08T07:41:50;20.55;;;10.25;;
79644;SDS011;69117;47.148;18.954;2024-03-08T07:44:54;22.83;;;8.52;;
79644;SDS011;69117;47.148;18.954;2024-03-08T07:47:56;20.10;;;8.15;;
79644;SDS011;69117;47.148;18.954;2024-03-08T07:50:58;17.25;;;8.40;;
79644;SDS011;69117;47.148;18.954;2024-03-08T07:53:59;18.67;;;9.48;;
79644;SDS011;69117;47.148;18.954;2024-03-08T07:57:01;16.05;;;8.32;;
79644;SDS011;69117;47.148;18.954;2024-03-08T08:00:05;18.67;;;8.18;;
79644;SDS011;69117;47.148;18.954;2024-03-08T08:03:10;16.40;;;7.55;;
79644;SDS011;69117;47.148;18.954;2024-03-08T08:06:11;18.05;;;7.93;;
79644;SDS011;69117;47.148;18.954;2024-03-08T08:09:17;16.80;;;8.98;;
79644;SDS011;69117;47.148;18.954;2024-03-08T08:12:29;16.02;;;8.18;;
79644;SDS011;69117;47.148;18.954;2024-03-08T08:15:31;20.30;;;8.27;;
79644;SDS011;69117;47.148;18.954;2024-03-08T08:18:34;15.82;;;9.50;;
79644;SDS011;69117;47.148;18.954;2024-03-08T08:21:36;14.30;;;6.95;;
79644;SDS011;69117;47.148;18.954;2024-03-08T08:24:38;16.90;;;8.93;;
79644;SDS011;69117;47.148;18.954;2024-03-08T08:27:40;14.30;;;6.75;;
79644;SDS011;69117;47.148;18.954;2024-03-08T08:30:41;12.30;;;6.57;;
79644;SDS011;69117;47.148;18.954;2024-03-08T08:33:43;12.35;;;7.80;;
79644;SDS011;69117;47.148;18.954;2024-03-08T08:36:48;14.38;;;6.22;;
79644;SDS011;69117;47.148;18.954;2024-03-08T08:39:50;12.35;;;6.68;;
79644;SDS011;69117;47.148;18.954;2024-03-08T08:42:52;13.43;;;6.50;;
79644;SDS011;69117;47.148;18.954;2024-03-08T08:45:54;16.98;;;7.78;;
79644;SDS011;69117;47.148;18.954;2024-03-08T08:48:56;9.82;;;5.38;;
79644;SDS011;69117;47.148;18.954;2024-03-08T08:51:58;12.23;;;6.55;;
79644;SDS011;69117;47.148;18.954;2024-03-08T08:55:09;10.85;;;6.57;;
79644;SDS011;69117;47.148;18.954;2024-03-08T08:58:15;13.13;;;6.68;;
79644;SDS011;69117;47.148;18.954;2024-03-08T09:01:17;11.15;;;6.50;;
79644;SDS011;69117;47.148;18.954;2024-03-08T09:04:20;11.70;;;5.15;;
79644;SDS011;69117;47.148;18.954;2024-03-08T09:07:23;9.25;;;5.65;;
79644;SDS011;69117;47.148;18.954;2024-03-08T09:10:25;10.73;;;5.47;;
79644;SDS011;69117;47.148;18.954;2024-03-08T09:13:30;8.10;;;4.95;;
79644;SDS011;69117;47.148;18.954;2024-03-08T09:16:35;8.18;;;4.90;;
79644;SDS011;69117;47.148;18.954;2024-03-08T09:19:38;9.55;;;4.93;;
79644;SDS011;69117;47.148;18.954;2024-03-08T09:22:44;7.57;;;3.55;;
79644;SDS011;69117;47.148;18.954;2024-03-08T09:25:47;10.77;;;5.40;;
79644;SDS011;69117;47.148;18.954;2024-03-08T09:28:49;9.40;;;4.93;;
79644;SDS011;69117;47.148;18.954;2024-03-08T09:31:51;8.68;;;4.22;;
79644;SDS011;69117;47.148;18.954;2024-03-08T09:34:53;13.32;;;6.28;;
79644;SDS011;69117;47.148;18.954;2024-03-08T09:37:54;10.07;;;5.38;;
79644;SDS011;69117;47.148;18.954;2024-03-08T09:40:57;10.35;;;5.43;;
79644;SDS011;69117;47.148;18.954;2024-03-08T09:43:59;8.40;;;4.78;;
79644;SDS011;69117;47.148;18.954;2024-03-08T09:47:01;10.25;;;5.03;;
79644;SDS011;69117;47.148;18.954;2024-03-08T09:50:04;8.90;;;5.20;;
79644;SDS011;69117;47.148;18.954;2024-03-08T09:53:07;8.60;;;4.53;;
79644;SDS011;69117;47.148;18.954;2024-03-08T09:56:13;10.20;;;4.57;;
79644;SDS011;69117;47.148;18.954;2024-03-08T09:59:14;7.13;;;4.10;;
79644;SDS011;69117;47.148;18.954;2024-03-08T10:02:34;9.77;;;4.95;;
79644;SDS011;69117;47.148;18.954;2024-03-08T10:05:36;8.27;;;4.85;;
79644;SDS011;69117;47.148;18.954;2024-03-08T10:08:38;12.20;;;6.07;;
79644;SDS011;69117;47.148;18.954;2024-03-08T10:11:42;8.52;;;4.82;;
79644;SDS011;69117;47.148;18.954;2024-03-08T10:14:44;6.85;;;4.15;;
79644;SDS011;69117;47.148;18.954;2024-03-08T10:17:47;8.18;;;3.63;;
79644;SDS011;69117;47.148;18.954;2024-03-08T10:21:06;7.05;;;4.15;;
79644;SDS011;69117;47.148;18.954;2024-03-08T10:24:11;6.32;;;3.25;;
79644;SDS011;69117;47.148;18.954;2024-03-08T10:27:16;6.85;;;3.22;;
79644;SDS011;69117;47.148;18.954;2024-03-08T10:30:18;4.68;;;3.03;;
79644;SDS011;69117;47.148;18.954;2024-03-08T10:33:21;4.72;;;3.25;;
79644;SDS011;69117;47.148;18.954;2024-03-08T10:36:23;7.25;;;2.78;;
79644;SDS011;69117;47.148;18.954;2024-03-08T10:39:27;5.88;;;3.15;;
79644;SDS011;69117;47.148;18.954;2024-03-08T10:42:40;8.48;;;5.03;;
79644;SDS011;69117;47.148;18.954;2024-03-08T10:45:45;6.70;;;3.15;;
79644;SDS011;69117;47.148;18.954;2024-03-08T10:48:50;7.80;;;4.30;;
79644;SDS011;69117;47.148;18.954;2024-03-08T10:51:53;7.38;;;4.30;;
79644;SDS011;69117;47.148;18.954;2024-03-08T10:54:57;4.75;;;3.33;;
79644;SDS011;69117;47.148;18.954;2024-03-08T10:58:00;6.50;;;3.63;;
79644;SDS011;69117;47.148;18.954;2024-03-08T11:01:02;12.52;;;5.38;;
79644;SDS011;69117;47.148;18.954;2024-03-08T11:04:04;9.13;;;4.38;;
79644;SDS011;69117;47.148;18.954;2024-03-08T11:07:06;8.05;;;4.38;;
79644;SDS011;69117;47.148;18.954;2024-03-08T11:10:18;11.32;;;6.07;;
79644;SDS011;69117;47.148;18.954;2024-03-08T11:13:37;13.65;;;5.88;;
79644;SDS011;69117;47.148;18.954;2024-03-08T11:16:47;13.77;;;8.50;;
79644;SDS011;69117;47.148;18.954;2024-03-08T11:19:49;18.88;;;7.55;;
79644;SDS011;69117;47.148;18.954;2024-03-08T11:22:55;10.57;;;5.68;;
79644;SDS011;69117;47.148;18.954;2024-03-08T11:26:44;11.73;;;5.05;;
79644;SDS011;69117;47.148;18.954;2024-03-08T11:29:38;9.63;;;5.30;;
79644;SDS011;69117;47.148;18.954;2024-03-08T11:32:45;10.55;;;5.28;;
79644;SDS011;69117;47.148;18.954;2024-03-08T11:35:48;9.52;;;4.88;;
79644;SDS011;69117;47.148;18.954;2024-03-08T11:38:50;9.65;;;5.07;;
79644;SDS011;69117;47.148;18.954;2024-03-08T11:41:54;9.50;;;5.85;;
79644;SDS011;69117;47.148;18.954;2024-03-08T11:44:56;9.20;;;5.03;;
79644;SDS011;69117;47.148;18.954;2024-03-08T11:47:59;11.75;;;5.50;;
79644;SDS011;69117;47.148;18.954;2024-03-08T11:51:01;8.15;;;4.53;;
79644;SDS011;69117;47.148;18.954;2024-03-08T11:54:04;9.10;;;5.45;;
79644;SDS011;69117;47.148;18.954;2024-03-08T11:57:07;9.25;;;5.03;;
79644;SDS011;69117;47.148;18.954;2024-03-08T12:00:14;10.48;;;4.55;;
79644;SDS011;69117;47.148;18.954;2024-03-08T12:03:24;6.60;;;4.07;;
79644;SDS011;69117;47.148;18.954;2024-03-08T12:06:26;6.57;;;3.22;;
79644;SDS011;69117;47.148;18.954;2024-03-08T12:09:28;6.00;;;4.30;;
79644;SDS011;69117;47.148;18.954;2024-03-08T12:12:30;6.43;;;3.35;;
79644;SDS011;69117;47.148;18.954;2024-03-08T12:15:34;9.45;;;4.85;;
79644;SDS011;69117;47.148;18.954;2024-03-08T12:18:36;6.63;;;3.45;;
79644;SDS011;69117;47.148;18.954;2024-03-08T12:21:39;9.70;;;5.68;;
79644;SDS011;69117;47.148;18.954;2024-03-08T12:25:05;7.60;;;4.82;;
79644;SDS011;69117;47.148;18.954;2024-03-08T12:28:12;8.95;;;4.70;;
79644;SDS011;69117;47.148;18.954;2024-03-08T12:31:17;11.10;;;5.95;;
79644;SDS011;69117;47.148;18.954;2024-03-08T12:34:22;11.85;;;6.30;;
79644;SDS011;69117;47.148;18.954;2024-03-08T12:37:23;13.07;;;7.10;;
79644;SDS011;69117;47.148;18.954;2024-03-08T12:40:26;17.95;;;6.75;;
79644;SDS011;69117;47.148;18.954;2024-03-08T12:43:33;12.55;;;5.13;;
79644;SDS011;69117;47.148;18.954;2024-03-08T12:46:35;9.00;;;5.35;;
79644;SDS011;69117;47.148;18.954;2024-03-08T12:49:37;6.32;;;3.38;;
79644;SDS011;69117;47.148;18.954;2024-03-08T12:52:39;9.35;;;5.63;;
79644;SDS011;69117;47.148;18.954;2024-03-08T12:55:40;14.85;;;5.80;;
79644;SDS011;69117;47.148;18.954;2024-03-08T12:58:42;12.07;;;6.20;;
79644;SDS011;69117;47.148;18.954;2024-03-08T13:01:44;10.35;;;6.35;;
79644;SDS011;69117;47.148;18.954;2024-03-08T13:04:46;10.52;;;5.55;;
79644;SDS011;69117;47.148;18.954;2024-03-08T13:07:56;10.82;;;6.20;;
79644;SDS011;69117;47.148;18.954;2024-03-08T13:11:00;13.55;;;7.00;;
79644;SDS011;69117;47.148;18.954;2024-03-08T13:14:03;11.40;;;4.65;;
79644;SDS011;69117;47.148;18.954;2024-03-08T13:17:06;12.13;;;6.88;;
79644;SDS011;69117;47.148;18.954;2024-03-08T13:20:12;16.35;;;6.45;;
79644;SDS011;69117;47.148;18.954;2024-03-08T13:23:31;18.30;;;5.68;;
79644;SDS011;69117;47.148;18.954;2024-03-08T13:26:32;11.60;;;5.90;;
79644;SDS011;69117;47.148;18.954;2024-03-08T13:29:35;15.10;;;6.53;;
79644;SDS011;69117;47.148;18.954;2024-03-08T13:32:37;16.58;;;7.03;;
79644;SDS011;69117;47.148;18.954;2024-03-08T13:35:40;21.88;;;8.15;;
79644;SDS011;69117;47.148;18.954;2024-03-08T13:38:43;14.85;;;8.73;;
79644;SDS011;69117;47.148;18.954;2024-03-08T13:41:45;13.60;;;6.72;;
79644;SDS011;69117;47.148;18.954;2024-03-08T13:44:48;13.05;;;7.93;;
79644;SDS011;69117;47.148;18.954;2024-03-08T13:47:52;20.73;;;9.90;;
79644;SDS011;69117;47.148;18.954;2024-03-08T13:50:56;19.25;;;8.38;;
79644;SDS011;69117;47.148;18.954;2024-03-08T13:53:58;15.35;;;7.10;;
79644;SDS011;69117;47.148;18.954;2024-03-08T13:57:01;17.15;;;8.07;;
79644;SDS011;69117;47.148;18.954;2024-03-08T14:00:05;14.45;;;7.30;;
79644;SDS011;69117;47.148;18.954;2024-03-08T14:03:08;12.32;;;5.70;;
79644;SDS011;69117;47.148;18.954;2024-03-08T14:06:11;16.15;;;8.32;;
79644;SDS011;69117;47.148;18.954;2024-03-08T14:09:24;15.35;;;6.28;;
79644;SDS011;69117;47.148;18.954;2024-03-08T14:12:26;12.02;;;5.38;;
79644;SDS011;69117;47.148;18.954;2024-03-08T14:15:30;13.25;;;7.00;;
79644;SDS011;69117;47.148;18.954;2024-03-08T14:18:32;13.77;;;7.03;;
79644;SDS011;69117;47.148;18.954;2024-03-08T14:21:34;10.77;;;5.05;;
79644;SDS011;69117;47.148;18.954;2024-03-08T14:24:36;18.92;;;8.70;;
79644;SDS011;69117;47.148;18.954;2024-03-08T14:27:38;17.55;;;7.60;;
79644;SDS011;69117;47.148;18.954;2024-03-08T14:30:39;14.25;;;6.10;;
79644;SDS011;69117;47.148;18.954;2024-03-08T14:33:44;13.90;;;6.72;;
79644;SDS011;69117;47.148;18.954;2024-03-08T14:39:51;14.57;;;6.85;;
79644;SDS011;69117;47.148;18.954;2024-03-08T14:42:53;14.05;;;7.25;;
79644;SDS011;69117;47.148;18.954;2024-03-08T14:45:55;15.50;;;7.53;;
79644;SDS011;69117;47.148;18.954;2024-03-08T14:48:57;15.68;;;5.95;;
79644;SDS011;69117;47.148;18.954;2024-03-08T14:51:58;16.08;;;6.53;;
79644;SDS011;69117;47.148;18.954;2024-03-08T14:55:00;9.55;;;5.40;;
79644;SDS011;69117;47.148;18.954;2024-03-08T14:58:04;15.52;;;6.13;;
79644;SDS011;69117;47.148;18.954;2024-03-08T15:01:06;13.57;;;7.35;;
79644;SDS011;69117;47.148;18.954;2024-03-08T15:04:12;15.30;;;7.20;;
79644;SDS011;69117;47.148;18.954;2024-03-08T15:07:13;13.88;;;6.63;;
79644;SDS011;69117;47.148;18.954;2024-03-08T15:10:15;12.35;;;5.32;;
79644;SDS011;69117;47.148;18.954;2024-03-08T15:13:18;11.10;;;6.22;;
79644;SDS011;69117;47.148;18.954;2024-03-08T15:16:24;9.10;;;3.78;;
79644;SDS011;69117;47.148;18.954;2024-03-08T15:19:26;10.05;;;5.50;;
79644;SDS011;69117;47.148;18.954;2024-03-08T15:22:29;15.52;;;7.80;;
79644;SDS011;69117;47.148;18.954;2024-03-08T15:25:31;10.85;;;5.30;;
79644;SDS011;69117;47.148;18.954;2024-03-08T15:28:36;14.13;;;6.57;;
79644;SDS011;69117;47.148;18.954;2024-03-08T15:31:38;20.85;;;8.00;;
79644;SDS011;69117;47.148;18.954;2024-03-08T15:34:44;17.30;;;6.47;;
79644;SDS011;69117;47.148;18.954;2024-03-08T15:37:47;16.00;;;7.70;;
79644;SDS011;69117;47.148;18.954;2024-03-08T15:40:49;11.63;;;6.68;;
79644;SDS011;69117;47.148;18.954;2024-03-08T15:43:52;14.15;;;6.47;;
79644;SDS011;69117;47.148;18.954;2024-03-08T15:46:56;15.73;;;8.20;;
79644;SDS011;69117;47.148;18.954;2024-03-08T15:49:58;17.00;;;7.65;;
79644;SDS011;69117;47.148;18.954;2024-03-08T15:53:05;19.38;;;8.43;;
79644;SDS011;69117;47.148;18.954;2024-03-08T15:56:07;12.55;;;8.27;;
79644;SDS011;69117;47.148;18.954;2024-03-08T15:59:10;12.50;;;6.93;;
79644;SDS011;69117;47.148;18.954;2024-03-08T16:02:12;16.63;;;6.80;;
79644;SDS011;69117;47.148;18.954;2024-03-08T16:05:14;15.07;;;8.07;;
79644;SDS011;69117;47.148;18.954;2024-03-08T16:08:16;21.10;;;5.85;;
79644;SDS011;69117;47.148;18.954;2024-03-08T16:11:19;11.10;;;6.72;;
79644;SDS011;69117;47.148;18.954;2024-03-08T16:14:23;15.23;;;7.47;;
79644;SDS011;69117;47.148;18.954;2024-03-08T16:17:25;12.75;;;7.22;;
79644;SDS011;69117;47.148;18.954;2024-03-08T16:20:27;19.13;;;8.93;;
79644;SDS011;69117;47.148;18.954;2024-03-08T16:23:29;13.77;;;6.80;;
79644;SDS011;69117;47.148;18.954;2024-03-08T16:26:32;13.40;;;7.03;;
79644;SDS011;69117;47.148;18.954;2024-03-08T16:29:36;12.52;;;7.65;;
79644;SDS011;69117;47.148;18.954;2024-03-08T16:32:41;12.88;;;5.55;;
79644;SDS011;69117;47.148;18.954;2024-03-08T16:35:43;10.65;;;7.03;;
79644;SDS011;69117;47.148;18.954;2024-03-08T16:38:46;18.33;;;9.00;;
79644;SDS011;69117;47.148;18.954;2024-03-08T16:41:50;18.25;;;8.82;;
79644;SDS011;69117;47.148;18.954;2024-03-08T16:44:51;15.93;;;8.30;;
79644;SDS011;69117;47.148;18.954;2024-03-08T16:47:53;14.80;;;8.45;;
79644;SDS011;69117;47.148;18.954;2024-03-08T16:50:56;19.60;;;7.70;;
79644;SDS011;69117;47.148;18.954;2024-03-08T16:53:57;15.38;;;6.00;;
79644;SDS011;69117;47.148;18.954;2024-03-08T16:56:59;21.40;;;8.40;;
79644;SDS011;69117;47.148;18.954;2024-03-08T17:00:02;25.48;;;8.63;;
79644;SDS011;69117;47.148;18.954;2024-03-08T17:03:11;20.40;;;8.18;;
79644;SDS011;69117;47.148;18.954;2024-03-08T17:06:14;14.75;;;7.72;;
79644;SDS011;69117;47.148;18.954;2024-03-08T17:09:16;15.82;;;7.88;;
79644;SDS011;69117;47.148;18.954;2024-03-08T17:12:19;16.20;;;7.43;;
79644;SDS011;69117;47.148;18.954;2024-03-08T17:15:22;21.75;;;9.73;;
79644;SDS011;69117;47.148;18.954;2024-03-08T17:18:24;21.70;;;8.02;;
79644;SDS011;69117;47.148;18.954;2024-03-08T17:21:27;21.13;;;9.15;;
79644;SDS011;69117;47.148;18.954;2024-03-08T17:24:30;25.23;;;10.68;;
79644;SDS011;69117;47.148;18.954;2024-03-08T17:27:32;23.65;;;10.90;;
79644;SDS011;69117;47.148;18.954;2024-03-08T17:30:37;22.63;;;10.90;;
79644;SDS011;69117;47.148;18.954;2024-03-08T17:33:42;24.40;;;9.10;;
79644;SDS011;69117;47.148;18.954;2024-03-08T17:36:44;20.70;;;9.25;;
79644;SDS011;69117;47.148;18.954;2024-03-08T17:39:51;18.85;;;9.05;;
79644;SDS011;69117;47.148;18.954;2024-03-08T17:42:59;25.85;;;11.93;;
79644;SDS011;69117;47.148;18.954;2024-03-08T17:46:02;19.02;;;8.43;;
79644;SDS011;69117;47.148;18.954;2024-03-08T17:49:06;15.32;;;6.20;;
79644;SDS011;69117;47.148;18.954;2024-03-08T17:52:07;17.88;;;9.32;;
79644;SDS011;69117;47.148;18.954;2024-03-08T17:55:10;22.27;;;8.27;;
79644;SDS011;69117;47.148;18.954;2024-03-08T17:58:15;17.65;;;9.43;;
79644;SDS011;69117;47.148;18.954;2024-03-08T18:01:17;19.27;;;10.55;;